Ophir, Kentucky
Current Conditions -  °F | °C
As of 10:55 PM on Thursday 18 Dec 2014 (Local Time) from KSJS Reporting Station
Broken Clouds Broken Clouds  
Wind Chill: 31°   Ceiling: 8000
Heat Index: 31°   Visibility: 10mi
Dew Point: 25°   Wind: 0mph
Humidity: 79%   Direction: NA
Pressure: 30.2"   Gusts: NA
Location:  37.91°N, 83.01°W
Report Text: KSJS 190355Z AUTO 00000KT 10SM SCT055 BKN080 00/M04 A3020 RMK AO2 T10051038
Loading
Personal Weather Stations






























Interactive Weather Map New forecast layout! Learn more

10-Day Weather Forecast

Advertisements
Track Severe Weather on mobile